Time;durP1;ratioP1;P1;durP2;ratioP2;P2;SDS_P1;SDS_P2;PMS_P1;PMS_P2;Temp;Humidity;BMP_temperature;BMP_pressure;BME280_temperature;BME280_humidity;BME280_pressure;Samples;Min_cycle;Max_cycle;Signal;HPM_P1;HPM_P2
2022/04/28 00:01:18;;;;;;;0.40;0.20;;;;;;;15.83;100.00;95330.41;5113995;28;20467;-53
2022/04/28 00:03:47;;;;;;;0.50;0.37;;;;;;;15.59;100.00;95331.72;5113971;28;20484;-53
2022/04/28 00:06:15;;;;;;;2.10;1.50;;;;;;;15.68;100.00;95316.59;5113798;28;20459;-54
2022/04/28 00:08:43;;;;;;;14.43;0.50;;;;;;;15.85;100.00;95327.41;5113781;28;20533;-54
2022/04/28 00:11:13;;;;;;;0.40;0.30;;;;;;;15.96;100.00;95333.34;5113610;28;20497;-53
2022/04/28 00:13:41;;;;;;;0.50;0.30;;;;;;;15.67;100.00;95331.03;5113605;28;20550;-54
2022/04/28 00:16:10;;;;;;;0.40;0.20;;;;;;;15.96;100.00;95333.34;5113974;28;20447;-54
2022/04/28 00:18:38;;;;;;;0.40;0.20;;;;;;;16.06;100.00;95333.09;5113591;28;20427;-54
2022/04/28 00:21:06;;;;;;;0.40;0.30;;;;;;;16.02;100.00;95330.22;5113446;28;20913;-54
2022/04/28 00:23:35;;;;;;;0.40;0.30;;;;;;;15.97;100.00;95332.22;5113219;28;20824;-54
2022/04/28 00:26:03;;;;;;;0.40;0.20;;;;;;;15.98;100.00;95333.81;5113386;28;20470;-54
2022/04/28 00:28:33;;;;;;;0.60;0.33;;;;;;;15.84;100.00;95323.94;5113433;28;20945;-54
2022/04/28 00:31:01;;;;;;;0.40;0.20;;;;;;;15.85;100.00;95325.53;5113333;28;20462;-54
2022/04/28 00:33:29;;;;;;;0.40;0.20;;;;;;;16.07;100.00;95324.75;5113547;28;20836;-54
2022/04/28 00:35:58;;;;;;;0.40;0.30;;;;;;;16.11;100.00;95320.41;5113442;28;20444;-54
2022/04/28 00:38:26;;;;;;;0.40;0.20;;;;;;;16.13;100.00;95326.25;5113066;28;20467;-54
2022/04/28 00:40:55;;;;;;;0.50;0.40;;;;;;;15.87;100.00;95320.69;5113364;28;20875;-54
2022/04/28 00:43:28;;;;;;;1.50;1.50;;;;;;;15.95;100.00;95321.84;5112768;28;20475;-54
2022/04/28 00:45:58;;;;;;;0.50;0.30;;;;;;;15.93;100.00;95299.97;5112965;28;20925;-54
2022/04/28 00:51:13;;;;;;;0.40;0.30;;;;;;;16.07;100.00;95335.47;5112039;28;20884;-54
2022/04/28 00:53:46;;;;;;;0.40;0.30;;;;;;;16.00;100.00;95327.06;5112719;28;20471;-54
2022/04/28 00:56:15;;;;;;;0.40;0.30;;;;;;;15.85;100.00;95311.38;5112882;28;20462;-54
2022/04/28 00:58:43;;;;;;;0.40;0.20;;;;;;;15.85;100.00;95324.75;5113026;28;20519;-54
2022/04/28 01:01:13;;;;;;;0.40;0.30;;;;;;;15.74;100.00;95324.19;5112704;28;20428;-54
2022/04/28 01:03:41;;;;;;;0.40;0.20;;;;;;;15.68;100.00;95332.63;5113010;28;20427;-54
2022/04/28 01:06:10;;;;;;;0.40;0.20;;;;;;;15.70;100.00;95323.22;5113011;28;20423;-54
2022/04/28 01:08:39;;;;;;;0.40;0.30;;;;;;;15.78;100.00;95321.72;5112522;28;20514;-54
2022/04/28 01:11:08;;;;;;;0.50;0.50;;;;;;;15.79;100.00;95318.72;5112634;28;20456;-54
2022/04/28 01:13:36;;;;;;;0.40;0.20;;;;;;;15.78;100.00;95329.72;5112367;28;20471;-54
2022/04/28 01:16:05;;;;;;;0.40;0.20;;;;;;;15.76;100.00;95326.56;5112388;28;20463;-54
2022/04/28 01:18:35;;;;;;;0.40;0.30;;;;;;;15.68;100.00;95309.38;5112688;28;20435;-54
2022/04/28 01:21:05;;;;;;;0.47;0.47;;;;;;;15.48;100.00;95312.47;5112169;28;20484;-54
2022/04/28 01:23:35;;;;;;;0.40;0.30;;;;;;;15.19;100.00;95315.44;5112658;28;20455;-54
2022/04/28 01:26:04;;;;;;;0.40;0.30;;;;;;;15.21;100.00;95321.25;5112303;28;20521;-54
2022/04/28 01:28:33;;;;;;;0.40;0.20;;;;;;;15.18;100.00;95294.34;5112020;28;20873;-54
2022/04/28 01:31:03;;;;;;;0.40;0.30;;;;;;;15.46;100.00;95311.16;5111989;28;20426;-54
2022/04/28 01:33:32;;;;;;;0.60;0.60;;;;;;;15.25;100.00;95276.84;5112131;28;20480;-54
2022/04/28 01:36:01;;;;;;;0.40;0.30;;;;;;;15.54;100.00;95299.78;5112014;28;20546;-54
2022/04/28 01:38:32;;;;;;;0.40;0.30;;;;;;;15.54;100.00;95310.47;5112195;28;20535;-54
2022/04/28 01:41:00;;;;;;;0.40;0.20;;;;;;;15.52;100.00;95318.00;5111935;28;20515;-54
2022/04/28 01:43:28;;;;;;;0.40;0.20;;;;;;;15.51;100.00;95314.53;5111678;28;20479;-54
2022/04/28 01:45:57;;;;;;;0.30;0.20;;;;;;;15.62;100.00;95315.91;5111699;28;20519;-54
2022/04/28 01:48:25;;;;;;;0.60;0.50;;;;;;;15.66;100.00;95313.44;5112240;28;20428;-54
2022/04/28 01:56:26;;;;;;;0.60;0.40;;;;;;;15.51;100.00;95317.19;5111937;28;20929;-54
2022/04/28 01:58:55;;;;;;;0.40;0.20;;;;;;;15.44;100.00;95305.31;5111885;28;20518;-54
2022/04/28 02:01:24;;;;;;;0.40;0.30;;;;;;;15.34;100.00;95302.84;5112176;28;20508;-54
2022/04/28 02:03:52;;;;;;;0.70;0.70;;;;;;;15.11;100.00;95305.44;5111880;28;20493;-54
2022/04/28 02:06:20;;;;;;;2.83;2.23;;;;;;;15.27;100.00;95304.06;5112123;28;20460;-54
2022/04/28 02:08:51;;;;;;;0.40;0.20;;;;;;;15.37;100.00;95300.38;5111769;28;20471;-54
2022/04/28 02:11:19;;;;;;;0.70;0.33;;;;;;;15.39;100.00;95300.88;5111794;28;20424;-54
2022/04/28 02:13:47;;;;;;;0.57;0.40;;;;;;;15.33;100.00;95299.38;5111734;28;20935;-54
2022/04/28 02:16:16;;;;;;;0.37;0.20;;;;;;;15.00;100.00;95306.72;5111349;28;20493;-54
2022/04/28 02:18:44;;;;;;;0.40;0.30;;;;;;;14.90;100.00;95301.59;5111791;28;20432;-54
2022/04/28 02:21:12;;;;;;;0.40;0.40;;;;;;;15.10;100.00;95295.84;5112101;28;20502;-54
2022/04/28 02:23:41;;;;;;;0.57;0.50;;;;;;;15.18;100.00;95297.03;5111487;28;20462;-54
2022/04/28 02:26:10;;;;;;;1.47;1.37;;;;;;;15.02;100.00;95296.56;5111753;28;20511;-54
2022/04/28 02:28:39;;;;;;;2.30;2.00;;;;;;;15.06;100.00;95297.53;5111546;28;20492;-54
2022/04/28 02:31:07;;;;;;;0.40;0.20;;;;;;;15.14;100.00;95299.53;5111452;28;20451;-54
2022/04/28 02:33:35;;;;;;;0.40;0.30;;;;;;;15.14;100.00;95304.06;5111684;28;20427;-53
2022/04/28 02:36:04;;;;;;;0.90;0.90;;;;;;;15.11;100.00;95301.97;5111305;28;20992;-53
2022/04/28 02:38:33;;;;;;;0.40;0.30;;;;;;;15.16;100.00;95307.22;5111336;28;20463;-54
2022/04/28 02:41:01;;;;;;;0.40;0.23;;;;;;;14.93;100.00;95302.88;5111402;28;20453;-54
2022/04/28 02:43:30;;;;;;;4.33;0.50;;;;;;;13.97;100.00;95307.19;5111167;28;20554;-53
2022/04/28 02:45:59;;;;;;;1.00;0.87;;;;;;;13.80;100.00;95305.06;5111677;28;20463;-54
2022/04/28 02:48:28;;;;;;;0.40;0.30;;;;;;;13.49;100.00;95309.22;5111728;28;20424;-54
2022/04/28 02:50:56;;;;;;;1.13;0.57;;;;;;;13.58;100.00;95306.72;5111278;28;20455;-54
2022/04/28 02:53:24;;;;;;;0.40;0.30;;;;;;;13.34;100.00;95301.44;5111618;28;20542;-54
2022/04/28 02:55:53;;;;;;;0.70;0.70;;;;;;;13.45;100.00;95312.75;5111217;28;20557;-54
2022/04/28 02:58:21;;;;;;;1.90;0.50;;;;;;;13.45;100.00;95308.22;5111287;28;20460;-54
2022/04/28 03:00:51;;;;;;;0.40;0.27;;;;;;;13.84;100.00;95308.72;5111338;28;20457;-54
2022/04/28 03:03:20;;;;;;;0.63;0.63;;;;;;;13.96;100.00;95303.72;5111506;28;20871;-54
2022/04/28 03:11:20;;;;;;;0.40;0.30;;;;;;;13.76;100.00;95308.59;5114772;28;20518;-54
2022/04/28 03:13:48;;;;;;;0.50;0.30;;;;;;;13.94;100.00;95315.75;5114892;28;20813;-54
2022/04/28 03:16:18;;;;;;;0.60;0.40;;;;;;;13.87;100.00;95300.13;5114536;28;20507;-54
2022/04/28 03:18:46;;;;;;;0.60;0.60;;;;;;;14.01;100.00;95313.53;5114481;28;20432;-53
2022/04/28 03:21:15;;;;;;;0.50;0.30;;;;;;;13.81;100.00;95306.63;5114669;28;20510;-53
2022/04/28 03:23:43;;;;;;;11.53;0.43;;;;;;;13.91;100.00;95321.69;5114495;28;20523;-53
2022/04/28 03:26:12;;;;;;;0.40;0.30;;;;;;;13.88;100.00;95317.72;5114431;28;20459;-53
2022/04/28 03:28:40;;;;;;;0.77;0.50;;;;;;;13.92;100.00;95320.59;5114077;28;20518;-53
2022/04/28 03:31:08;;;;;;;2.50;0.40;;;;;;;13.91;100.00;95322.44;5114459;28;20462;-53
2022/04/28 03:33:38;;;;;;;0.40;0.20;;;;;;;13.94;100.00;95321.06;5114275;28;20463;-53
2022/04/28 03:36:50;;;;;;;0.40;0.30;;;;;;;13.90;100.00;95322.75;5114201;28;20565;-53
2022/04/28 03:38:55;;;;;;;0.40;0.20;;;;;;;13.86;100.00;95325.19;5113999;28;20475;-53
2022/04/28 03:41:24;;;;;;;0.40;0.30;;;;;;;13.85;100.00;95328.16;5114176;28;20515;-53
2022/04/28 03:43:52;;;;;;;0.40;0.30;;;;;;;13.90;100.00;95330.75;5113882;28;20502;-53
2022/04/28 03:46:21;;;;;;;0.80;0.80;;;;;;;13.91;100.00;95317.13;5114337;28;20459;-53
2022/04/28 03:48:51;;;;;;;0.40;0.30;;;;;;;14.09;100.00;95333.41;5114041;28;20489;-53
2022/04/28 03:51:19;;;;;;;0.40;0.30;;;;;;;14.11;100.00;95342.69;5114411;28;20510;-52
2022/04/28 03:53:48;;;;;;;1.43;0.60;;;;;;;14.06;100.00;95340.09;5114333;28;20463;-53
2022/04/28 03:56:16;;;;;;;0.40;0.20;;;;;;;14.04;100.00;95342.25;5113226;28;20495;-54
2022/04/28 03:58:45;;;;;;;0.50;0.50;;;;;;;14.07;100.00;95332.88;5113906;28;20423;-53
2022/04/28 04:01:14;;;;;;;0.40;0.30;;;;;;;14.11;100.00;95341.91;5114176;28;20466;-54
2022/04/28 04:03:42;;;;;;;2.10;1.90;;;;;;;14.09;100.00;95349.38;5113826;28;20792;-54
2022/04/28 04:06:12;;;;;;;1.80;0.60;;;;;;;13.85;100.00;95339.59;5113940;28;20420;-53
2022/04/28 04:08:40;;;;;;;1.07;0.40;;;;;;;14.10;100.00;95350.97;5113891;28;20503;-54
2022/04/28 04:11:09;;;;;;;0.63;0.63;;;;;;;14.17;100.00;95346.84;5113691;28;21012;-53
2022/04/28 04:13:37;;;;;;;0.60;0.60;;;;;;;14.29;100.00;95351.75;5113704;28;20476;-54
2022/04/28 04:16:06;;;;;;;1.20;1.07;;;;;;;14.36;100.00;95350.31;5113302;28;20474;-53
2022/04/28 04:18:34;;;;;;;0.40;0.30;;;;;;;14.40;100.00;95355.84;5113837;28;20423;-53
2022/04/28 04:21:03;;;;;;;0.60;0.40;;;;;;;14.36;100.00;95350.31;5113446;28;20463;-53
2022/04/28 04:23:33;;;;;;;0.50;0.40;;;;;;;14.39;100.00;95354.28;5113533;28;20447;-53
2022/04/28 04:26:02;;;;;;;0.40;0.20;;;;;;;14.41;100.00;95341.44;5113373;28;20466;-54
2022/04/28 04:28:30;;;;;;;0.50;0.43;;;;;;;14.48;100.00;95341.84;5112882;28;20514;-54
2022/04/28 04:33:44;;;;;;;0.50;0.50;;;;;;;14.80;100.00;95341.81;5112978;28;20484;-53
2022/04/28 04:36:12;;;;;;;2.77;1.90;;;;;;;14.93;100.00;95342.91;5113020;28;20498;-53
2022/04/28 04:38:42;;;;;;;0.40;0.30;;;;;;;14.91;100.00;95351.22;5112714;28;20518;-54
2022/04/28 04:41:11;;;;;;;2.57;0.70;;;;;;;15.03;100.00;95353.38;5112696;28;20514;-53
2022/04/28 04:43:40;;;;;;;0.40;0.27;;;;;;;14.88;100.00;95345.66;5112716;28;20552;-53
2022/04/28 04:46:08;;;;;;;0.40;0.27;;;;;;;14.98;100.00;95346.28;5112519;28;20467;-53
2022/04/28 04:48:38;;;;;;;0.40;0.23;;;;;;;15.17;100.00;95352.31;5112677;28;20917;-54
2022/04/28 04:51:07;;;;;;;0.40;0.20;;;;;;;14.91;100.00;95340.53;5112752;28;20432;-54
2022/04/28 04:53:35;;;;;;;0.50;0.40;;;;;;;15.00;100.00;95352.09;5112790;28;20515;-54
2022/04/28 04:56:06;;;;;;;8.90;1.63;;;;;;;14.48;100.00;95363.19;5112417;28;20511;-54
2022/04/28 04:58:34;;;;;;;0.50;0.30;;;;;;;14.37;100.00;95357.22;5112617;28;20428;-54
2022/04/28 05:01:04;;;;;;;2.53;1.53;;;;;;;14.17;100.00;95357.50;5112631;28;20467;-54
2022/04/28 05:03:32;;;;;;;7.00;1.90;;;;;;;14.47;100.00;95357.03;5112737;28;20478;-54
2022/04/28 05:06:01;;;;;;;2.77;1.33;;;;;;;14.19;100.00;95359.91;5113101;28;20431;-54
2022/04/28 05:08:29;;;;;;;0.90;0.90;;;;;;;13.67;100.00;95368.91;5112735;28;20467;-54
2022/04/28 05:10:57;;;;;;;0.60;0.43;;;;;;;13.96;100.00;95373.00;5112749;28;20499;-55
2022/04/28 05:13:27;;;;;;;1.87;1.77;;;;;;;14.00;100.00;95373.22;5112568;28;20823;-53
2022/04/28 05:15:56;;;;;;;1.10;1.00;;;;;;;13.90;100.00;95379.50;5112880;28;20455;-53
2022/04/28 05:18:24;;;;;;;1.80;1.07;;;;;;;14.20;100.00;95375.59;5112556;28;20510;-54
2022/04/28 05:20:52;;;;;;;2.13;2.03;;;;;;;14.00;100.00;95374.03;5112530;28;20466;-53
2022/04/28 05:23:21;;;;;;;2.30;0.90;;;;;;;14.05;100.00;95375.03;5112396;28;20474;-54
2022/04/28 05:25:49;;;;;;;2.17;2.07;;;;;;;14.12;100.00;95380.78;5112468;28;20901;-54
2022/04/28 05:28:18;;;;;;;2.43;0.80;;;;;;;14.23;100.00;95383.00;5111807;28;20558;-54
2022/04/28 05:30:48;;;;;;;3.90;2.10;;;;;;;14.30;100.00;95375.44;5112350;28;20431;-54
2022/04/28 05:33:16;;;;;;;5.20;3.23;;;;;;;14.36;100.00;95376.19;5112168;28;20769;-54
2022/04/28 05:35:44;;;;;;;0.40;0.40;;;;;;;14.39;100.00;95370.28;5112431;28;21000;-52
2022/04/28 05:38:13;;;;;;;2.40;1.33;;;;;;;14.48;100.00;95371.19;5112434;28;20507;-52
2022/04/28 05:40:41;;;;;;;0.40;0.30;;;;;;;15.20;100.00;95381.09;5112227;28;20913;-53
2022/04/28 05:45:58;;;;;;;0.50;0.30;;;;;;;15.62;100.00;95368.53;5112087;28;20467;-55
2022/04/28 05:48:27;;;;;;;0.40;0.30;;;;;;;15.64;100.00;95371.69;5112151;28;20465;-55
2022/04/28 05:50:56;;;;;;;2.07;1.30;;;;;;;15.44;100.00;95369.41;5111775;28;20975;-55
2022/04/28 05:53:24;;;;;;;0.60;0.50;;;;;;;16.07;100.00;95366.75;5112145;28;20523;-55
2022/04/28 05:55:52;;;;;;;0.83;0.80;;;;;;;15.86;100.00;95366.44;5112100;28;20529;-55
2022/04/28 05:58:21;;;;;;;1.07;0.97;;;;;;;15.98;100.00;95368.56;5112299;28;20619;-55
2022/04/28 06:00:49;;;;;;;1.00;1.00;;;;;;;16.94;100.00;95364.38;5112394;28;20506;-55
2022/04/28 06:03:19;;;;;;;6.10;1.07;;;;;;;17.08;100.00;95363.19;5112038;28;20480;-55
2022/04/28 06:05:47;;;;;;;0.80;0.40;;;;;;;17.18;100.00;95370.16;5112115;28;20498;-54
2022/04/28 06:08:15;;;;;;;0.77;0.77;;;;;;;17.62;98.03;95363.88;5111677;28;20471;-54
2022/04/28 06:10:44;;;;;;;6.83;1.03;;;;;;;17.26;97.63;95368.59;5112258;28;20514;-54
2022/04/28 06:13:12;;;;;;;1.80;0.70;;;;;;;17.88;94.12;95370.09;5111786;28;20459;-54
2022/04/28 06:15:40;;;;;;;0.40;0.40;;;;;;;18.36;91.81;95367.28;5111485;28;20461;-54
2022/04/28 06:18:09;;;;;;;0.40;0.30;;;;;;;18.59;86.91;95366.03;5112126;28;20520;-55
2022/04/28 06:20:38;;;;;;;0.50;0.50;;;;;;;19.24;83.21;95371.06;5111929;28;20937;-54
2022/04/28 06:23:07;;;;;;;1.83;0.87;;;;;;;20.15;76.44;95371.22;5112128;28;20784;-55
2022/04/28 06:25:35;;;;;;;0.57;0.50;;;;;;;19.15;79.35;95366.81;5111788;28;20510;-55
2022/04/28 06:28:04;;;;;;;1.03;0.40;;;;;;;19.72;75.93;95359.16;5111572;28;20510;-55
2022/04/28 06:30:33;;;;;;;0.43;0.30;;;;;;;20.16;72.14;95364.69;5111781;28;20419;-55
2022/04/28 06:33:01;;;;;;;0.40;0.30;;;;;;;20.41;71.47;95346.81;5111726;28;20523;-55
2022/04/28 06:35:30;;;;;;;0.70;0.70;;;;;;;20.57;67.18;95357.72;5111743;28;20510;-55
2022/04/28 06:38:00;;;;;;;0.53;0.40;;;;;;;19.91;71.30;95357.59;5111507;28;20502;-55
2022/04/28 06:40:28;;;;;;;0.40;0.30;;;;;;;20.69;70.13;95347.03;5113843;28;20530;-55
2022/04/28 06:42:57;;;;;;;0.77;0.77;;;;;;;20.50;66.23;95347.50;5115629;28;20518;-55
2022/04/28 06:45:26;;;;;;;0.73;0.67;;;;;;;19.91;67.35;95333.38;5115819;28;20488;-55
2022/04/28 06:47:54;;;;;;;1.70;0.40;;;;;;;20.82;68.06;95352.09;5115858;28;20498;-56
2022/04/28 06:50:23;;;;;;;1.77;1.70;;;;;;;21.35;61.45;95351.22;5115466;28;20577;-56
2022/04/28 06:52:52;;;;;;;2.30;2.20;;;;;;;21.70;59.92;95348.06;5116073;28;20419;-56
2022/04/28 06:55:21;;;;;;;7.07;1.83;;;;;;;22.01;60.63;95351.00;5116297;28;20482;-58
2022/04/28 06:57:50;;;;;;;26.20;0.97;;;;;;;21.03;60.71;95349.34;5114991;28;20470;-57
2022/04/28 07:00:18;;;;;;;1.07;1.07;;;;;;;21.96;60.87;95345.84;5115430;28;20510;-58
2022/04/28 07:02:47;;;;;;;0.90;0.90;;;;;;;22.47;57.22;95346.91;5116234;28;20423;-59
2022/04/28 07:05:16;;;;;;;2.40;0.93;;;;;;;22.29;54.91;95351.03;5115419;28;20435;-58
2022/04/28 07:07:45;;;;;;;0.70;0.50;;;;;;;22.89;54.11;95348.13;5115179;28;20766;-55
2022/04/28 07:10:13;;;;;;;1.57;1.27;;;;;;;23.05;52.75;95342.72;5115206;28;20864;-54
2022/04/28 07:12:43;;;;;;;0.70;0.67;;;;;;;22.90;51.41;95344.25;5115286;28;20534;-54
2022/04/28 07:15:11;;;;;;;0.50;0.40;;;;;;;22.29;53.52;95341.00;5114801;28;20428;-55
2022/04/28 07:17:40;;;;;;;3.60;0.77;;;;;;;22.51;52.88;95335.09;5115091;28;20546;-55
2022/04/28 07:20:10;;;;;;;0.63;0.50;;;;;;;22.74;50.57;95336.13;5115065;28;20431;-55
2022/04/28 07:22:38;;;;;;;3.97;0.50;;;;;;;22.95;50.90;95333.19;5115210;28;20456;-56
2022/04/28 07:25:08;;;;;;;0.70;0.70;;;;;;;23.62;49.17;95328.69;5114961;28;20428;-56
2022/04/28 07:27:36;;;;;;;0.40;0.30;;;;;;;23.46;48.71;95331.41;5114935;28;20814;-56
2022/04/28 07:30:07;;;;;;;0.40;0.30;;;;;;;24.11;45.84;95327.13;5114436;28;20427;-56
2022/04/28 07:32:35;;;;;;;0.90;0.90;;;;;;;24.98;44.31;95324.63;5114833;28;20496;-56
2022/04/28 07:35:04;;;;;;;1.73;0.43;;;;;;;24.88;43.42;95317.09;5114551;28;20467;-57
2022/04/28 07:37:33;;;;;;;0.70;0.67;;;;;;;25.54;43.98;95318.63;5114554;28;20495;-56
2022/04/28 07:40:01;;;;;;;1.23;0.70;;;;;;;25.88;40.74;95310.22;5114471;28;20427;-58
2022/04/28 07:42:30;;;;;;;1.13;1.13;;;;;;;26.19;40.36;95308.31;5114090;28;20435;-57
2022/04/28 07:44:58;;;;;;;5.10;2.20;;;;;;;25.27;40.56;95317.00;5112679;28;20498;-58
2022/04/28 07:47:28;;;;;;;0.60;0.50;;;;;;;26.05;40.03;95314.34;5115573;28;20467;-56
2022/04/28 07:49:59;;;;;;;1.70;0.60;;;;;;;25.70;38.74;95309.16;5115817;28;20517;-57
2022/04/28 07:52:28;;;;;;;0.77;0.60;;;;;;;25.46;39.06;95308.78;5115705;28;20433;-56
2022/04/28 07:54:57;;;;;;;0.37;0.30;;;;;;;25.58;37.41;95262.44;5115100;28;20446;-56
2022/04/28 07:57:27;;;;;;;0.40;0.30;;;;;;;25.45;38.18;95307.22;5115044;28;20504;-56
2022/04/28 07:59:56;;;;;;;0.40;0.30;;;;;;;25.99;38.60;95302.22;5114510;28;20876;-56
2022/04/28 08:02:26;;;;;;;0.60;0.50;;;;;;;25.93;39.24;95238.53;5114300;28;20448;-55
2022/04/28 08:04:56;;;;;;;0.50;0.40;;;;;;;25.80;37.45;95300.41;5114135;28;20499;-56
2022/04/28 08:07:26;;;;;;;1.00;0.80;;;;;;;25.13;37.69;95176.47;5114000;28;20510;-55
2022/04/28 08:09:54;;;;;;;0.73;0.73;;;;;;;26.42;37.40;95296.22;5114270;28;20787;-56
2022/04/28 08:12:22;;;;;;;0.50;0.43;;;;;;;27.99;34.26;95291.81;5113515;28;20431;-55
2022/04/28 08:15:11;;;;;;;0.47;0.30;;;;;;;26.96;34.61;95292.94;5113443;28;20435;-55
2022/04/28 08:17:39;;;;;;;0.50;0.50;;;;;;;27.95;33.81;95291.03;5113787;28;21169;-55
2022/04/28 08:20:10;;;;;;;0.73;0.30;;;;;;;28.85;33.53;95275.47;5113210;28;20463;-55
2022/04/28 08:22:39;;;;;;;4.77;0.30;;;;;;;28.94;32.68;95284.06;5113241;28;20471;-55
2022/04/28 08:25:08;;;;;;;0.87;0.53;;;;;;;28.32;33.11;95282.69;5113408;28;20463;-56
2022/04/28 08:27:38;;;;;;;0.50;0.50;;;;;;;27.44;33.98;95285.63;5113601;28;20438;-60
2022/04/28 08:30:07;;;;;;;0.97;0.87;;;;;;;28.55;34.04;95283.16;5113333;28;20482;-60
2022/04/28 08:32:35;;;;;;;6.70;0.40;;;;;;;29.41;32.31;95274.78;5113336;28;20419;-60
2022/04/28 08:35:04;;;;;;;1.17;1.17;;;;;;;29.53;32.16;95268.13;5113248;28;20470;-59
2022/04/28 08:37:36;;;;;;;3.70;1.03;;;;;;;27.80;34.18;95280.44;5113103;28;20514;-60
2022/04/28 08:40:06;;;;;;;3.33;0.90;;;;;;;29.46;32.79;95273.59;5113795;28;20428;-59
2022/04/28 08:42:37;;;;;;;10.70;0.83;;;;;;;27.76;33.10;95279.59;5113378;28;20515;-59
2022/04/28 08:45:06;;;;;;;0.70;0.70;;;;;;;27.76;34.96;95257.81;5112655;28;21016;-58
2022/04/28 08:47:34;;;;;;;0.40;0.33;;;;;;;28.73;35.10;95270.38;5113135;28;20925;-59
2022/04/28 08:50:03;;;;;;;10.80;0.50;;;;;;;28.82;33.64;95261.81;5112284;28;20467;-59
2022/04/28 08:52:32;;;;;;;0.50;0.30;;;;;;;29.03;34.08;95266.53;5112928;28;20419;-58
2022/04/28 08:55:03;;;;;;;0.60;0.60;;;;;;;29.02;33.74;95265.00;5112715;28;20637;-59
2022/04/28 08:57:33;;;;;;;0.40;0.30;;;;;;;30.26;32.08;95250.03;5112920;28;20858;-59
2022/04/28 09:00:02;;;;;;;0.40;0.40;;;;;;;28.84;31.84;95260.25;5112989;28;20479;-59
2022/04/28 09:02:33;;;;;;;8.53;0.60;;;;;;;30.37;32.20;95245.34;5112488;28;20455;-59
2022/04/28 09:05:03;;;;;;;0.40;0.30;;;;;;;30.43;32.43;95248.44;5112188;28;20436;-60
2022/04/28 09:07:35;;;;;;;0.57;0.57;;;;;;;30.37;30.87;95237.13;5113113;28;20403;-59
2022/04/28 09:10:30;;;;;;;0.50;0.30;;;;;;;29.69;31.31;95245.88;5113371;28;20474;-59
2022/04/28 09:14:09;;;;;;;0.40;0.30;;;;;;;29.02;33.55;95245.88;5113261;28;20440;-58
2022/04/28 09:15:56;;;;;;;0.43;0.30;;;;;;;28.58;32.91;95241.50;5112489;28;20448;-58
2022/04/28 09:18:25;;;;;;;4.50;0.83;;;;;;;27.79;34.90;95238.00;5112660;28;20805;-58
2022/04/28 09:20:53;;;;;;;1.50;1.40;;;;;;;28.02;34.80;95241.28;5112718;28;20499;-58
2022/04/28 09:23:21;;;;;;;0.40;0.30;;;;;;;29.11;33.18;95230.69;5112135;28;20852;-58
2022/04/28 09:25:53;;;;;;;2.80;0.50;;;;;;;29.69;33.40;95232.22;5111861;28;20506;-58
2022/04/28 09:28:22;;;;;;;0.50;0.43;;;;;;;28.90;33.49;95227.94;5112211;28;20519;-58
2022/04/28 09:30:52;;;;;;;0.60;0.60;;;;;;;29.66;31.50;95225.59;5112474;28;20909;-58
2022/04/28 09:33:23;;;;;;;0.93;0.50;;;;;;;30.81;31.24;95211.88;5112119;28;20431;-59
2022/04/28 09:35:53;;;;;;;1.43;1.33;;;;;;;31.35;31.10;95219.31;5112121;28;20435;-59
2022/04/28 09:38:22;;;;;;;0.40;0.30;;;;;;;32.98;28.38;95212.75;5111921;28;20481;-60
2022/04/28 09:43:56;;;;;;;0.40;0.30;;;;;;;32.30;28.22;95198.38;5111970;28;21072;-58
2022/04/28 09:46:31;;;;;;;0.50;0.50;;;;;;;31.75;28.74;95204.06;5112060;28;20450;-59
2022/04/28 09:49:00;;;;;;;0.50;0.50;;;;;;;31.23;28.77;95206.13;5111919;28;20855;-59
2022/04/28 09:51:30;;;;;;;1.53;0.37;;;;;;;30.82;29.47;95205.22;5112406;28;20454;-59
2022/04/28 09:54:01;;;;;;;1.60;1.60;;;;;;;29.84;30.19;95192.78;5111877;28;20467;-59
2022/04/28 09:56:34;;;;;;;0.60;0.50;;;;;;;29.83;31.10;95196.72;5112287;28;20449;-59
2022/04/28 09:59:05;;;;;;;0.40;0.30;;;;;;;29.95;31.43;95177.94;5112124;28;20478;-59
2022/04/28 10:01:34;;;;;;;0.50;0.30;;;;;;;31.00;31.12;95185.97;5112064;28;20447;-59
2022/04/28 10:04:03;;;;;;;0.43;0.40;;;;;;;29.15;30.90;95189.72;5111664;28;20427;-58
2022/04/28 10:06:34;;;;;;;0.90;0.47;;;;;;;28.67;31.88;95195.56;5111917;28;20485;-57
2022/04/28 10:09:09;;;;;;;0.40;0.37;;;;;;;27.31;33.44;95194.50;5111807;28;20428;-57
2022/04/28 10:11:39;;;;;;;3.23;0.40;;;;;;;27.91;33.69;95185.91;5112089;28;20419;-58
2022/04/28 10:14:11;;;;;;;1.40;1.30;;;;;;;28.05;33.80;95180.56;5111881;28;20467;-58
2022/04/28 10:16:43;;;;;;;0.50;0.50;;;;;;;27.81;33.87;95176.53;5116118;28;20921;-59
2022/04/28 10:19:16;;;;;;;1.37;0.90;;;;;;;27.62;35.36;95133.28;5115409;28;21026;-58
2022/04/28 10:21:54;;;;;;;0.50;0.30;;;;;;;28.16;33.51;95175.91;5115741;28;20533;-58
2022/04/28 10:33:11;;;;;;;1.63;0.70;;;;;;;26.59;36.57;95158.16;5115943;28;20423;-60
2022/04/28 10:35:44;;;;;;;0.30;0.20;;;;;;;26.51;37.00;95159.22;5115601;28;20423;-60
2022/04/28 10:38:22;;;;;;;0.40;0.30;;;;;;;26.73;37.96;95152.81;5115563;28;20518;-60
2022/04/28 10:40:59;;;;;;;0.80;0.33;;;;;;;27.23;36.62;95149.34;5115638;28;20547;-60
2022/04/28 10:43:38;;;;;;;0.30;0.20;;;;;;;27.93;35.46;95154.41;5115220;28;20494;-60
2022/04/28 10:46:33;;;;;;;0.60;0.40;;;;;;;27.99;34.83;95152.09;5115604;28;20851;-58
2022/04/28 10:49:05;;;;;;;0.40;0.30;;;;;;;28.10;33.63;95142.81;5115760;28;20445;-58
2022/04/28 10:51:36;;;;;;;3.90;0.93;;;;;;;28.31;32.48;95142.88;5115632;27;20496;-57
2022/04/28 10:54:11;;;;;;;0.60;0.40;;;;;;;28.03;33.37;95131.13;5114326;28;20484;-58
2022/04/28 10:56:56;;;;;;;0.50;0.50;;;;;;;28.02;34.10;95141.25;5111400;28;20895;-58
2022/04/28 10:59:39;;;;;;;0.30;0.30;;;;;;;27.29;33.73;95141.59;5114375;28;20490;-59
2022/04/28 11:02:41;;;;;;;0.40;0.30;;;;;;;27.75;32.65;95134.50;5115189;28;20434;-59
2022/04/28 11:05:43;;;;;;;2.27;1.53;;;;;;;27.68;33.37;95135.22;5115218;28;20437;-60
2022/04/28 11:08:25;;;;;;;0.40;0.30;;;;;;;27.54;34.64;95131.66;5115499;28;20492;-60
2022/04/28 11:11:09;;;;;;;12.53;0.90;;;;;;;27.07;34.68;95125.13;5115288;28;20482;-61
2022/04/28 11:13:38;;;;;;;0.63;0.40;;;;;;;27.65;35.75;95125.09;5114925;28;20948;-59
2022/04/28 11:16:10;;;;;;;0.30;0.30;;;;;;;28.38;33.67;95124.97;5114923;28;20996;-57
2022/04/28 11:18:38;;;;;;;1.17;0.73;;;;;;;28.03;33.93;95114.78;5114768;28;20917;-58
2022/04/28 11:21:07;;;;;;;0.57;0.57;;;;;;;27.98;32.45;95109.69;5114716;28;20499;-57
2022/04/28 11:23:41;;;;;;;18.77;0.50;;;;;;;28.85;33.70;95054.47;5114788;28;20427;-59
2022/04/28 11:26:11;;;;;;;0.97;0.97;;;;;;;29.58;32.80;95069.13;5113772;28;20513;-57
2022/04/28 11:28:42;;;;;;;0.50;0.50;;;;;;;29.92;30.67;95102.19;5114775;28;20989;-57
2022/04/28 11:31:18;;;;;;;0.60;0.40;;;;;;;29.88;30.37;95109.63;5114645;28;20989;-58
2022/04/28 11:33:49;;;;;;;0.50;0.40;;;;;;;30.53;30.35;95108.91;5114479;28;20427;-58
2022/04/28 11:36:26;;;;;;;0.67;0.50;;;;;;;31.07;29.53;95101.81;5114399;28;20451;-58
2022/04/28 11:38:57;;;;;;;0.83;0.83;;;;;;;31.99;25.54;95098.09;5114280;28;20612;-59
2022/04/28 11:41:38;;;;;;;1.23;0.33;;;;;;;32.09;25.96;95104.63;5114205;28;20570;-60
2022/04/28 11:44:08;;;;;;;3.60;0.40;;;;;;;33.05;26.61;95091.06;5113950;28;20975;-60
2022/04/28 11:46:49;;;;;;;0.50;0.47;;;;;;;31.62;26.53;95104.41;5114098;28;20427;-60
2022/04/28 11:49:17;;;;;;;1.57;1.47;;;;;;;30.36;27.35;95100.81;5114117;28;20974;-60
2022/04/28 11:51:46;;;;;;;1.30;0.77;;;;;;;30.92;27.56;95096.88;5114102;28;20458;-60
2022/04/28 11:54:23;;;;;;;0.40;0.40;;;;;;;32.22;27.20;95087.22;5114494;28;20427;-60
2022/04/28 11:56:52;;;;;;;1.23;1.13;;;;;;;31.26;27.89;95084.81;5114181;28;20441;-60
2022/04/28 11:59:21;;;;;;;1.47;1.00;;;;;;;32.19;26.63;95085.28;5114030;28;20492;-60
2022/04/28 12:01:51;;;;;;;0.40;0.30;;;;;;;33.03;26.21;95085.97;5114402;28;20463;-59
2022/04/28 12:04:19;;;;;;;0.40;0.30;;;;;;;32.38;26.22;95095.59;5113954;28;20423;-59
2022/04/28 12:06:49;;;;;;;0.30;0.20;;;;;;;33.37;24.81;95083.00;5113831;28;20427;-59
2022/04/28 12:15:02;;;;;;;1.53;1.43;;;;;;;32.43;24.58;95064.19;5030799;28;20892;-60
2022/04/28 12:20:22;;;;;;;0.40;0.40;;;;;;;31.32;24.05;95076.94;5113863;28;20490;-57
2022/04/28 12:22:51;;;;;;;1.10;0.87;;;;;;;32.04;23.81;95062.00;5113884;28;20450;-57